Terminal Aerodrome Forecast
Issued by NWS

Home | Current Version | Previous Version | Text Only | Print | Product List | Glossary On
Versions: 1 2 3 4 5 6 7 8 9 10 11 12 13 14 15
000
FTUS46 KMTR 212341
TAFSNS
TAF
KSNS 212341Z 2200/2224 25018G24KT P6SM SCT040
     FM220300 24010KT P6SM SCT035
     FM220900 26006KT P6SM FEW020 SCT025 BKN035
     FM221300 14005KT P6SM FEW015 BKN025
     FM221800 25004KT P6SM SCT025
     FM222100 27011KT P6SM FEW035=

USA.gov is the U.S. government's official web portal to all federal, state and local government web resources and services.